createdAt,value
2018-12-12T00:00:30.564Z,6.20
2018-12-12T00:02:59.536Z,6.10
2018-12-12T00:05:28.562Z,6.10
2018-12-12T00:07:57.494Z,6.30
2018-12-12T00:10:26.445Z,6.30
2018-12-12T00:12:55.398Z,6.30
2018-12-12T00:15:24.676Z,6.20
2018-12-12T00:17:54.076Z,6.20
2018-12-12T00:20:23.021Z,6.20
2018-12-12T00:22:52.042Z,6.20
2018-12-12T00:25:21.071Z,6.10
2018-12-12T00:27:49.989Z,6.00
2018-12-12T00:30:19.002Z,5.90
2018-12-12T00:32:54.593Z,5.80
2018-12-12T00:35:23.625Z,5.90
2018-12-12T00:37:52.597Z,6.00
2018-12-12T00:40:21.584Z,5.80
2018-12-12T00:42:51.006Z,5.90
2018-12-12T00:45:20.852Z,6.00
2018-12-12T00:47:49.846Z,6.00
2018-12-12T00:50:18.876Z,5.90
2018-12-12T00:52:47.905Z,5.90
2018-12-12T00:55:16.875Z,6.00
2018-12-12T00:57:46.041Z,5.90
2018-12-12T01:00:15.034Z,5.90
2018-12-12T01:02:44.032Z,5.90
2018-12-12T01:05:13.032Z,5.90
2018-12-12T01:07:41.958Z,5.80
2018-12-12T01:10:10.948Z,5.90
2018-12-12T01:12:40.008Z,5.90
2018-12-12T01:15:09.082Z,6.00
2018-12-12T01:17:38.005Z,6.10
2018-12-12T01:20:07.089Z,6.10
2018-12-12T01:22:36.070Z,6.00
2018-12-12T01:25:05.023Z,5.80
2018-12-12T01:27:33.941Z,5.70
2018-12-12T01:30:02.880Z,5.80
2018-12-12T01:32:31.814Z,6.00
2018-12-12T01:35:00.755Z,6.10
2018-12-12T01:37:29.770Z,6.00
2018-12-12T01:39:58.762Z,6.00
2018-12-12T01:42:27.789Z,6.00
2018-12-12T01:44:56.709Z,5.90
2018-12-12T01:47:25.633Z,5.90
2018-12-12T01:49:54.583Z,5.90
2018-12-12T01:52:23.633Z,5.90
2018-12-12T01:54:52.671Z,5.80
2018-12-12T01:57:22.064Z,5.70
2018-12-12T01:59:51.021Z,5.80
2018-12-12T02:02:19.967Z,5.80
2018-12-12T02:04:48.915Z,5.90
2018-12-12T02:07:18.030Z,5.80
2018-12-12T02:09:47.026Z,5.70
2018-12-12T02:12:16.034Z,5.50
2018-12-12T02:14:45.079Z,5.70
2018-12-12T02:17:14.141Z,5.90
2018-12-12T02:19:43.157Z,6.00
2018-12-12T02:22:12.309Z,6.00
2018-12-12T02:24:41.334Z,5.80
2018-12-12T02:27:10.312Z,5.80
2018-12-12T02:29:39.308Z,6.00
2018-12-12T02:32:08.247Z,6.00
2018-12-12T02:34:37.352Z,6.00
2018-12-12T02:37:06.399Z,5.80
2018-12-12T02:39:35.818Z,5.60
2018-12-12T02:42:04.777Z,5.70
2018-12-12T02:44:33.722Z,5.70
2018-12-12T02:47:02.655Z,5.50
2018-12-12T02:49:32.421Z,5.60
2018-12-12T02:52:01.563Z,5.60
2018-12-12T02:54:30.502Z,5.60
2018-12-12T02:56:59.487Z,5.60
2018-12-12T02:59:28.471Z,5.30
2018-12-12T03:01:57.555Z,5.50
2018-12-12T03:04:26.498Z,5.60
2018-12-12T03:06:55.510Z,5.70
2018-12-12T03:09:24.462Z,5.60
2018-12-12T03:11:53.437Z,5.60
2018-12-12T03:14:22.426Z,5.70
2018-12-12T03:16:51.381Z,5.60
2018-12-12T03:19:20.417Z,5.70
2018-12-12T03:21:49.360Z,5.60
2018-12-12T03:24:18.316Z,5.50
2018-12-12T03:26:47.373Z,5.70
2018-12-12T03:29:16.333Z,5.70
2018-12-12T03:31:45.282Z,5.50
2018-12-12T03:34:14.564Z,5.60
2018-12-12T03:36:44.223Z,5.60
2018-12-12T03:39:13.273Z,5.60
2018-12-12T03:41:42.351Z,5.50
2018-12-12T03:44:11.315Z,5.40
2018-12-12T03:46:40.420Z,5.40
2018-12-12T03:49:09.348Z,5.20
2018-12-12T03:51:38.294Z,5.10
2018-12-12T03:54:07.274Z,5.50
2018-12-12T03:56:36.295Z,5.70
2018-12-12T03:59:05.215Z,5.60
2018-12-12T04:01:34.181Z,5.70
2018-12-12T04:04:03.168Z,5.60
2018-12-12T04:06:32.138Z,5.30
2018-12-12T04:09:01.290Z,5.40
2018-12-12T04:11:30.373Z,5.30
2018-12-12T04:13:59.345Z,5.40
2018-12-12T04:16:28.593Z,5.60
2018-12-12T04:18:57.926Z,5.40
2018-12-12T04:21:26.906Z,5.50
2018-12-12T04:23:55.855Z,5.50
2018-12-12T04:26:24.803Z,5.50
2018-12-12T04:28:53.768Z,5.60
2018-12-12T04:31:22.766Z,5.50
2018-12-12T04:33:51.725Z,5.60
2018-12-12T04:36:20.677Z,5.30
2018-12-12T04:38:49.610Z,5.30
2018-12-12T04:41:18.599Z,5.10
2018-12-12T04:43:47.517Z,5.00
2018-12-12T04:46:16.483Z,5.10
2018-12-12T04:48:45.415Z,5.30
2018-12-12T04:51:14.365Z,5.50
2018-12-12T04:53:43.299Z,5.40
2018-12-12T04:56:12.255Z,5.60
2018-12-12T04:58:41.221Z,5.60
2018-12-12T05:01:10.670Z,5.70
2018-12-12T05:03:39.820Z,5.70
2018-12-12T05:06:08.973Z,5.60
2018-12-12T05:08:38.141Z,5.50
2018-12-12T05:11:07.379Z,5.30
2018-12-12T05:13:36.804Z,5.50
2018-12-12T05:16:05.755Z,5.60
2018-12-12T05:18:34.698Z,5.40
2018-12-12T05:21:03.622Z,5.40
2018-12-12T05:23:32.598Z,5.40
2018-12-12T05:26:01.617Z,5.50
2018-12-12T05:28:30.562Z,5.70
2018-12-12T05:30:59.623Z,5.80
2018-12-12T05:33:29.507Z,5.60
2018-12-12T05:35:58.442Z,5.60
2018-12-12T05:38:27.598Z,5.40
2018-12-12T05:40:56.558Z,5.30
2018-12-12T05:43:25.530Z,5.30
2018-12-12T05:45:54.487Z,5.10
2018-12-12T05:48:23.494Z,5.00
2018-12-12T05:50:52.426Z,5.30
2018-12-12T05:53:21.378Z,5.20
2018-12-12T05:55:50.374Z,5.10
2018-12-12T05:58:19.325Z,5.00
2018-12-12T06:00:48.320Z,5.30
2018-12-12T06:03:17.263Z,5.10
2018-12-12T06:05:46.209Z,5.10
2018-12-12T06:08:15.157Z,5.10
2018-12-12T06:10:44.254Z,5.40
2018-12-12T06:13:13.203Z,5.30
2018-12-12T06:15:42.310Z,5.10
2018-12-12T06:18:11.262Z,5.00
2018-12-12T06:20:40.223Z,4.90
2018-12-12T06:23:09.211Z,5.10
2018-12-12T06:25:38.247Z,5.10
2018-12-12T06:28:07.442Z,4.90
2018-12-12T06:30:36.360Z,4.80
2018-12-12T06:33:05.351Z,4.90
2018-12-12T06:35:34.280Z,5.20
2018-12-12T06:38:03.242Z,5.20
2018-12-12T06:40:32.219Z,5.10
2018-12-12T06:43:01.154Z,4.90
2018-12-12T06:45:30.141Z,4.80
2018-12-12T06:47:59.124Z,5.00
2018-12-12T06:50:28.054Z,5.20
2018-12-12T06:52:57.009Z,5.10
2018-12-12T06:55:25.966Z,5.00
2018-12-12T06:57:54.884Z,5.20
2018-12-12T07:00:23.818Z,5.10
2018-12-12T07:02:52.748Z,5.10
2018-12-12T07:05:21.689Z,5.10
2018-12-12T07:07:50.614Z,5.10
2018-12-12T07:10:19.549Z,5.40
2018-12-12T07:12:48.467Z,5.60
2018-12-12T07:15:17.418Z,5.70
2018-12-12T07:17:46.389Z,5.60
2018-12-12T07:20:16.198Z,5.30
2018-12-12T07:22:45.105Z,5.20
2018-12-12T07:25:14.033Z,5.20
2018-12-12T07:27:42.985Z,5.20
2018-12-12T07:30:12.001Z,5.00
2018-12-12T07:32:40.915Z,4.80
2018-12-12T07:35:09.857Z,4.70
2018-12-12T07:37:38.809Z,4.90
2018-12-12T07:40:07.901Z,4.80
2018-12-12T07:42:36.844Z,4.80
2018-12-12T07:45:05.802Z,4.80
2018-12-12T07:47:34.730Z,4.70
2018-12-12T07:50:04.589Z,4.70
2018-12-12T07:52:33.586Z,4.60
2018-12-12T07:55:03.082Z,4.60
2018-12-12T07:57:31.999Z,4.80
2018-12-12T08:00:00.963Z,4.80
2018-12-12T08:02:29.919Z,4.80
2018-12-12T08:04:58.940Z,4.90
2018-12-12T08:07:27.853Z,5.00
2018-12-12T08:09:56.828Z,5.00
2018-12-12T08:12:25.755Z,4.80
2018-12-12T08:14:54.694Z,4.90
2018-12-12T08:17:23.721Z,5.00
2018-12-12T08:19:52.670Z,5.30
2018-12-12T08:22:21.797Z,5.50
2018-12-12T08:24:50.750Z,5.50
2018-12-12T08:27:19.671Z,5.60
2018-12-12T08:29:48.622Z,5.50
2018-12-12T08:32:17.538Z,5.60
2018-12-12T08:34:46.450Z,5.60
2018-12-12T08:37:15.518Z,5.50
2018-12-12T08:39:44.790Z,5.40
2018-12-12T08:42:13.896Z,5.20
2018-12-12T08:44:43.050Z,5.20
2018-12-12T08:47:12.054Z,5.00
2018-12-12T08:49:47.834Z,4.90
2018-12-12T08:52:17.782Z,5.20
2018-12-12T08:54:46.993Z,5.10
2018-12-12T08:57:17.274Z,5.10
2018-12-12T08:59:47.158Z,5.10
2018-12-12T09:02:16.545Z,5.10
2018-12-12T09:04:45.702Z,5.10
2018-12-12T09:07:15.574Z,5.10
2018-12-12T09:09:44.740Z,5.10
2018-12-12T09:12:15.065Z,5.10
2018-12-12T09:14:44.317Z,5.00
2018-12-12T09:17:13.469Z,5.40
2018-12-12T09:19:42.751Z,5.40
2018-12-12T09:22:12.121Z,5.50
2018-12-12T09:24:41.755Z,5.60
2018-12-12T09:27:10.977Z,5.70
2018-12-12T09:29:40.096Z,5.90
2018-12-12T09:32:09.230Z,5.90
2018-12-12T09:34:38.382Z,5.70
2018-12-12T09:37:07.521Z,5.70
2018-12-12T09:39:37.087Z,5.70
2018-12-12T09:42:07.587Z,5.80
2018-12-12T09:44:36.935Z,6.00
2018-12-12T09:47:06.292Z,6.20
2018-12-12T09:49:35.533Z,6.30
2018-12-12T09:52:04.731Z,6.30
2018-12-12T09:54:33.870Z,6.10
2018-12-12T09:57:04.899Z,6.00
2018-12-12T09:59:34.187Z,5.80
2018-12-12T10:02:03.832Z,6.10
2018-12-12T10:04:32.983Z,5.90
2018-12-12T10:07:02.231Z,5.70
2018-12-12T10:09:31.789Z,5.60
2018-12-12T10:12:01.567Z,5.80
2018-12-12T10:14:30.710Z,5.80
2018-12-12T10:17:00.033Z,5.60
2018-12-12T10:19:29.246Z,5.50
2018-12-12T10:21:58.645Z,5.40
2018-12-12T10:24:28.371Z,7.60
2018-12-12T10:26:57.662Z,5.10
2018-12-12T10:29:26.997Z,5.10
2018-12-12T10:31:56.180Z,5.10
2018-12-12T10:34:25.391Z,5.30
2018-12-12T10:36:54.553Z,5.80
2018-12-12T10:39:23.709Z,5.80
2018-12-12T10:41:53.018Z,5.70
2018-12-12T10:44:22.323Z,5.70
2018-12-12T10:46:51.504Z,5.80
2018-12-12T10:49:20.827Z,5.80
2018-12-12T10:51:49.984Z,5.50
2018-12-12T10:54:19.186Z,5.40
2018-12-12T10:56:48.384Z,5.30
2018-12-12T10:59:17.550Z,5.40
2018-12-12T11:01:47.627Z,5.40
2018-12-12T11:04:18.631Z,5.50
2018-12-12T11:06:48.553Z,5.40
2018-12-12T11:09:19.282Z,5.40
2018-12-12T11:11:48.555Z,5.50
2018-12-12T11:14:17.801Z,5.60
2018-12-12T11:16:46.918Z,5.50
2018-12-12T11:19:16.055Z,5.30
2018-12-12T11:21:46.865Z,5.20
2018-12-12T11:24:16.197Z,5.20
2018-12-12T11:26:45.336Z,5.30
2018-12-12T11:29:14.483Z,5.20
2018-12-12T11:31:43.745Z,5.30
2018-12-12T11:34:13.097Z,5.30
2018-12-12T11:36:42.243Z,5.30
2018-12-12T11:39:11.439Z,5.50
2018-12-12T11:41:40.583Z,5.50
2018-12-12T11:44:10.568Z,5.40
2018-12-12T11:46:40.199Z,5.30
2018-12-12T11:49:10.111Z,5.30
2018-12-12T11:51:39.219Z,5.40
2018-12-12T11:54:09.168Z,5.50
2018-12-12T11:56:38.409Z,5.40
2018-12-12T11:59:07.597Z,5.50
2018-12-12T12:01:36.729Z,5.50
2018-12-12T12:04:05.920Z,5.30
2018-12-12T12:12:34.439Z,5.40
2018-12-12T12:15:03.572Z,5.40
2018-12-12T12:17:32.481Z,5.70
2018-12-12T12:20:01.866Z,5.50
2018-12-12T12:22:30.823Z,5.50
2018-12-12T12:24:59.952Z,5.50
2018-12-12T12:27:28.916Z,5.50
2018-12-12T12:30:04.829Z,5.50
2018-12-12T12:32:34.678Z,5.60
2018-12-12T12:35:03.669Z,5.70
2018-12-12T12:37:32.592Z,5.70
2018-12-12T12:40:01.634Z,5.80
2018-12-12T12:42:30.640Z,6.00
2018-12-12T12:44:59.594Z,6.20
2018-12-12T12:47:28.557Z,6.20
2018-12-12T12:49:57.966Z,6.10
2018-12-12T12:52:26.900Z,6.10
2018-12-12T12:54:55.993Z,6.10
2018-12-12T12:57:24.916Z,6.10
2018-12-12T12:59:53.870Z,5.80
2018-12-12T13:02:22.844Z,5.90
2018-12-12T13:04:52.898Z,5.90
2018-12-12T13:07:21.869Z,5.70
2018-12-12T13:09:50.864Z,5.60
2018-12-12T13:12:20.544Z,5.70
2018-12-12T13:14:50.241Z,5.70
2018-12-12T13:17:19.154Z,5.60
2018-12-12T13:19:48.131Z,5.50
2018-12-12T13:22:17.038Z,5.60
2018-12-12T13:24:45.945Z,5.70
2018-12-12T13:27:14.952Z,5.60
2018-12-12T13:29:43.870Z,5.50
2018-12-12T13:32:12.819Z,5.50
2018-12-12T13:34:41.776Z,5.50
2018-12-12T13:37:10.750Z,5.70
2018-12-12T13:39:39.748Z,5.90
2018-12-12T13:42:08.696Z,5.90
2018-12-12T13:44:37.869Z,5.70
2018-12-12T13:47:10.265Z,5.80
2018-12-12T13:49:39.544Z,5.50
2018-12-12T13:52:08.489Z,5.40
2018-12-12T13:54:37.449Z,5.40
2018-12-12T13:57:07.340Z,5.40
2018-12-12T13:59:36.255Z,5.30
2018-12-12T14:02:05.222Z,5.30
2018-12-12T14:04:34.340Z,5.30
2018-12-12T14:07:03.322Z,5.30
2018-12-12T14:09:32.277Z,5.10
2018-12-12T14:12:01.440Z,5.10
2018-12-12T14:14:30.429Z,5.10
2018-12-12T14:16:59.382Z,5.10
2018-12-12T14:19:29.168Z,5.30
2018-12-12T14:21:58.198Z,5.40
2018-12-12T14:24:27.196Z,5.40
2018-12-12T14:26:56.142Z,5.20
2018-12-12T14:29:25.080Z,5.50
2018-12-12T14:31:54.005Z,5.40
2018-12-12T14:34:29.064Z,5.50
2018-12-12T14:36:53.890Z,5.50
2018-12-12T14:39:22.813Z,5.50
2018-12-12T14:44:31.451Z,5.50
2018-12-12T14:47:00.403Z,5.30
2018-12-12T14:49:29.447Z,5.10
2018-12-12T14:51:58.407Z,5.10
2018-12-12T14:54:27.374Z,5.10
2018-12-12T14:56:56.387Z,5.10
2018-12-12T14:59:25.341Z,5.20
2018-12-12T15:01:54.317Z,5.30
2018-12-12T15:04:23.263Z,5.30
2018-12-12T15:06:52.268Z,5.30
2018-12-12T15:09:21.205Z,5.50
2018-12-12T15:11:50.192Z,5.40
2018-12-12T15:14:19.127Z,5.20
2018-12-12T15:16:48.124Z,5.10
2018-12-12T15:19:17.057Z,5.10
2018-12-12T15:21:46.265Z,5.20
2018-12-12T15:24:15.217Z,5.20
2018-12-12T15:26:44.148Z,5.00
2018-12-12T15:29:13.093Z,5.00
2018-12-12T15:31:42.008Z,5.30
2018-12-12T15:34:10.943Z,5.40
2018-12-12T15:36:39.899Z,5.20
2018-12-12T15:39:09.329Z,5.00
2018-12-12T15:41:38.298Z,5.00
2018-12-12T15:44:07.244Z,4.90
2018-12-12T15:46:36.245Z,4.90
2018-12-12T15:49:05.208Z,4.90
2018-12-12T15:51:34.132Z,5.10
2018-12-12T15:54:03.064Z,5.20
2018-12-12T15:56:32.035Z,5.20
2018-12-12T15:59:00.963Z,5.20
2018-12-12T16:01:30.225Z,5.20
2018-12-12T16:04:06.161Z,5.00
2018-12-12T16:06:35.252Z,5.00
2018-12-12T16:09:05.803Z,5.10
2018-12-12T16:11:34.766Z,5.10
2018-12-12T16:14:03.944Z,4.90
2018-12-12T16:16:32.908Z,4.90
2018-12-12T16:19:01.830Z,4.90
2018-12-12T16:21:30.765Z,5.10
2018-12-12T16:23:59.727Z,5.10
2018-12-12T16:26:29.725Z,5.20
2018-12-12T16:28:58.708Z,5.30
2018-12-12T16:31:27.719Z,5.50
2018-12-12T16:33:57.582Z,5.30
2018-12-12T16:36:26.855Z,5.30
2018-12-12T16:39:01.628Z,5.00
2018-12-12T16:41:30.578Z,5.00
2018-12-12T16:43:59.546Z,5.00
2018-12-12T16:46:28.528Z,5.00
2018-12-12T16:48:57.525Z,4.90
2018-12-12T16:51:26.541Z,4.90
2018-12-12T16:53:55.514Z,4.90
2018-12-12T16:56:24.522Z,5.00
2018-12-12T16:58:53.477Z,4.90
2018-12-12T17:01:22.682Z,4.90
2018-12-12T17:03:51.725Z,4.90
2018-12-12T17:06:21.007Z,4.90
2018-12-12T17:08:50.180Z,5.00
2018-12-12T17:11:19.222Z,5.00
2018-12-12T17:13:49.479Z,4.90
2018-12-12T17:16:18.542Z,5.30
2018-12-12T17:18:47.661Z,5.30
2018-12-12T17:21:17.228Z,5.30
2018-12-12T17:23:47.228Z,5.10
2018-12-12T17:26:16.254Z,5.10
2018-12-12T17:28:45.487Z,5.10
2018-12-12T17:31:14.845Z,5.20
2018-12-12T17:33:43.904Z,5.00
2018-12-12T17:36:12.955Z,5.10
2018-12-12T17:38:42.892Z,5.20
2018-12-12T17:41:12.013Z,4.90
2018-12-12T17:43:41.047Z,4.90
2018-12-12T17:46:10.098Z,4.80
2018-12-12T17:48:39.545Z,4.90
2018-12-12T17:51:08.502Z,4.80
2018-12-12T17:53:37.443Z,4.90
2018-12-12T17:56:06.380Z,4.80
2018-12-12T17:58:35.324Z,5.10
2018-12-12T18:01:05.021Z,5.10
2018-12-12T18:03:34.505Z,5.10
2018-12-12T18:06:03.468Z,5.00
2018-12-12T18:08:32.382Z,4.90
2018-12-12T18:11:01.447Z,4.80
2018-12-12T18:13:30.367Z,4.90
2018-12-12T18:15:59.333Z,5.00
2018-12-12T18:18:28.334Z,5.00
2018-12-12T18:20:57.312Z,4.90
2018-12-12T18:23:26.531Z,5.20
2018-12-12T18:25:55.514Z,5.00
2018-12-12T18:28:24.506Z,5.00
2018-12-12T18:30:53.736Z,4.90
2018-12-12T18:33:24.362Z,4.60
2018-12-12T18:35:53.443Z,4.70
2018-12-12T18:38:22.482Z,4.60
2018-12-12T18:40:51.486Z,4.80
2018-12-12T18:43:21.879Z,4.80
2018-12-12T18:45:52.421Z,5.10
2018-12-12T18:48:21.515Z,5.40
2018-12-12T18:50:50.564Z,5.30
2018-12-12T18:53:19.831Z,5.40
2018-12-12T18:55:48.769Z,5.20
2018-12-12T18:58:17.776Z,5.20
2018-12-12T19:00:46.697Z,5.00
2018-12-12T19:03:15.669Z,5.10
2018-12-12T19:05:44.822Z,5.00
2018-12-12T19:08:13.758Z,5.20
2018-12-12T19:10:42.706Z,5.00
2018-12-12T19:13:11.670Z,4.90
2018-12-12T19:15:40.635Z,4.70
2018-12-12T19:18:09.599Z,4.40
2018-12-12T19:20:38.538Z,4.50
2018-12-12T19:23:07.528Z,4.90
2018-12-12T19:25:36.478Z,4.90
2018-12-12T19:28:05.407Z,4.70
2018-12-12T19:30:35.350Z,4.80
2018-12-12T19:33:04.325Z,4.80
2018-12-12T19:35:34.891Z,4.90
2018-12-12T19:38:04.070Z,4.90
2018-12-12T19:40:33.092Z,5.00
2018-12-12T19:43:02.070Z,5.10
2018-12-12T19:45:31.003Z,5.10
2018-12-12T19:48:04.950Z,5.10
2018-12-12T19:50:33.905Z,4.90
2018-12-12T19:53:10.443Z,4.80
2018-12-12T19:55:39.410Z,4.60
2018-12-12T19:58:08.414Z,4.70
2018-12-12T20:00:40.102Z,4.80
2018-12-12T20:03:09.058Z,4.90
2018-12-12T20:05:41.297Z,4.90
2018-12-12T20:08:09.696Z,5.10
2018-12-12T20:10:38.661Z,5.10
2018-12-12T20:13:07.617Z,4.90
2018-12-12T20:15:46.382Z,4.90
2018-12-12T20:18:15.331Z,4.90
2018-12-12T20:20:45.208Z,4.60
2018-12-12T20:23:14.179Z,4.70
2018-12-12T20:25:43.128Z,4.60
2018-12-12T20:28:12.077Z,4.60
2018-12-12T20:30:41.102Z,4.70
2018-12-12T20:33:10.114Z,5.10
2018-12-12T20:35:39.185Z,5.20
2018-12-12T20:38:12.372Z,5.10
2018-12-12T20:40:41.390Z,5.00
2018-12-12T20:43:11.466Z,5.00
2018-12-12T20:45:40.463Z,5.10
2018-12-12T20:48:09.425Z,5.20
2018-12-12T20:50:38.406Z,5.10
2018-12-12T20:53:07.448Z,5.10
2018-12-12T20:55:36.380Z,4.70
2018-12-12T20:58:05.385Z,4.80
2018-12-12T21:00:34.438Z,4.90
2018-12-12T21:03:03.381Z,4.90
2018-12-12T21:05:32.381Z,4.80
2018-12-12T21:08:01.327Z,4.70
2018-12-12T21:10:30.334Z,4.80
2018-12-12T21:13:00.144Z,4.80
2018-12-12T21:15:29.081Z,5.00
2018-12-12T21:17:57.999Z,5.00
2018-12-12T21:20:26.998Z,5.00
2018-12-12T21:22:56.914Z,5.00
2018-12-12T21:25:28.081Z,5.20
2018-12-12T21:27:57.013Z,5.20
2018-12-12T21:30:25.994Z,5.10
2018-12-12T21:32:55.678Z,5.10
2018-12-12T21:35:29.156Z,5.00
2018-12-12T21:37:58.936Z,5.00
2018-12-12T21:40:28.586Z,5.10
2018-12-12T21:42:57.538Z,5.00
2018-12-12T21:45:26.566Z,5.00
2018-12-12T21:47:55.477Z,4.90
2018-12-12T21:50:24.432Z,4.90
2018-12-12T21:52:54.279Z,5.00
2018-12-12T21:55:23.225Z,4.80
2018-12-12T21:57:52.155Z,4.80
2018-12-12T22:00:22.534Z,4.70
2018-12-12T22:02:51.512Z,4.70
2018-12-12T22:05:20.454Z,4.70
2018-12-12T22:07:49.942Z,4.50
2018-12-12T22:10:18.904Z,4.50
2018-12-12T22:12:47.809Z,4.40
2018-12-12T22:15:20.968Z,4.30
2018-12-12T22:17:50.646Z,4.30
2018-12-12T22:20:19.596Z,4.20
2018-12-12T22:22:48.544Z,4.10
2018-12-12T22:25:17.510Z,4.10
2018-12-12T22:27:46.453Z,4.10
2018-12-12T22:30:15.406Z,4.10
2018-12-12T22:32:44.322Z,4.10
2018-12-12T22:35:13.426Z,4.10
2018-12-12T22:37:42.358Z,4.20
2018-12-12T22:40:11.357Z,4.10
2018-12-12T22:42:40.315Z,4.00
2018-12-12T22:45:09.218Z,4.00
2018-12-12T22:47:38.169Z,4.00
2018-12-12T22:50:07.181Z,4.10
2018-12-12T22:52:36.157Z,4.20
2018-12-12T22:55:05.169Z,4.20
2018-12-12T22:57:34.109Z,4.30
2018-12-12T23:00:03.136Z,4.30
2018-12-12T23:02:32.084Z,4.50
2018-12-12T23:05:00.994Z,4.40
2018-12-12T23:07:29.951Z,4.30
2018-12-12T23:09:58.970Z,4.30
2018-12-12T23:12:27.956Z,4.30
2018-12-12T23:14:56.970Z,4.20
2018-12-12T23:17:25.915Z,4.20
2018-12-12T23:19:54.874Z,4.40
2018-12-12T23:22:23.837Z,4.20
2018-12-12T23:24:52.841Z,4.40
2018-12-12T23:27:21.791Z,4.20
2018-12-12T23:29:50.781Z,4.40
2018-12-12T23:32:19.748Z,4.40
2018-12-12T23:34:48.733Z,4.20
2018-12-12T23:37:17.721Z,4.00
2018-12-12T23:39:46.683Z,3.90
2018-12-12T23:42:15.618Z,3.80
2018-12-12T23:44:44.548Z,3.80
2018-12-12T23:47:13.494Z,3.70
2018-12-12T23:49:42.409Z,3.50
2018-12-12T23:52:11.357Z,3.60
2018-12-12T23:54:40.271Z,3.40
2018-12-12T23:57:09.270Z,3.40
2018-12-12T23:59:38.203Z,3.10
